sensor_id;sensor_type;location;lat;lon;timestamp;temperature;humidity
14008;DHT22;61651;45.508;12.232;2024-01-30T00:02:43;5.70;99.90
14008;DHT22;61651;45.508;12.232;2024-01-30T00:05:46;5.40;99.90
14008;DHT22;61651;45.508;12.232;2024-01-30T00:08:48;5.40;99.90
14008;DHT22;61651;45.508;12.232;2024-01-30T00:11:52;5.30;99.90
14008;DHT22;61651;45.508;12.232;2024-01-30T00:14:54;5.40;99.90
14008;DHT22;61651;45.508;12.232;2024-01-30T00:17:56;5.60;99.90
14008;DHT22;61651;45.508;12.232;2024-01-30T00:20:58;5.60;99.90
14008;DHT22;61651;45.508;12.232;2024-01-30T00:24:00;5.20;99.90
14008;DHT22;61651;45.508;12.232;2024-01-30T00:27:04;4.80;99.90
14008;DHT22;61651;45.508;12.232;2024-01-30T00:30:07;4.60;99.90
14008;DHT22;61651;45.508;12.232;2024-01-30T00:33:09;4.20;99.90
14008;DHT22;61651;45.508;12.232;2024-01-30T00:36:11;4.10;99.90
14008;DHT22;61651;45.508;12.232;2024-01-30T00:39:13;4.10;99.90
14008;DHT22;61651;45.508;12.232;2024-01-30T00:42:17;4.00;99.90
14008;DHT22;61651;45.508;12.232;2024-01-30T00:45:20;4.00;99.90
14008;DHT22;61651;45.508;12.232;2024-01-30T00:48:22;3.80;99.90
14008;DHT22;61651;45.508;12.232;2024-01-30T00:51:24;3.70;99.90
14008;DHT22;61651;45.508;12.232;2024-01-30T00:54:28;3.50;99.90
14008;DHT22;61651;45.508;12.232;2024-01-30T00:57:32;3.40;99.90
14008;DHT22;61651;45.508;12.232;2024-01-30T01:00:34;2.90;99.90
14008;DHT22;61651;45.508;12.232;2024-01-30T01:03:36;3.00;99.90
14008;DHT22;61651;45.508;12.232;2024-01-30T01:06:38;3.00;99.90
14008;DHT22;61651;45.508;12.232;2024-01-30T01:09:43;3.30;99.90
14008;DHT22;61651;45.508;12.232;2024-01-30T01:12:47;3.50;99.90
14008;DHT22;61651;45.508;12.232;2024-01-30T01:15:50;3.30;99.90
14008;DHT22;61651;45.508;12.232;2024-01-30T01:18:52;3.20;99.90
14008;DHT22;61651;45.508;12.232;2024-01-30T01:21:54;2.90;99.90
14008;DHT22;61651;45.508;12.232;2024-01-30T01:24:56;2.90;99.90
14008;DHT22;61651;45.508;12.232;2024-01-30T01:28:00;2.70;99.90
14008;DHT22;61651;45.508;12.232;2024-01-30T01:31:02;2.70;99.90
14008;DHT22;61651;45.508;12.232;2024-01-30T01:34:06;2.60;99.90
14008;DHT22;61651;45.508;12.232;2024-01-30T01:37:08;2.80;99.90
14008;DHT22;61651;45.508;12.232;2024-01-30T01:40:10;2.90;99.90
14008;DHT22;61651;45.508;12.232;2024-01-30T01:43:13;3.00;99.90
14008;DHT22;61651;45.508;12.232;2024-01-30T01:46:16;2.90;99.90
14008;DHT22;61651;45.508;12.232;2024-01-30T01:49:19;2.70;99.90
14008;DHT22;61651;45.508;12.232;2024-01-30T01:52:21;2.70;99.90
14008;DHT22;61651;45.508;12.232;2024-01-30T01:55:23;2.60;99.90
14008;DHT22;61651;45.508;12.232;2024-01-30T01:58:29;2.80;99.90
14008;DHT22;61651;45.508;12.232;2024-01-30T02:01:32;3.00;99.90
14008;DHT22;61651;45.508;12.232;2024-01-30T02:04:34;3.00;99.90
14008;DHT22;61651;45.508;12.232;2024-01-30T02:07:37;3.00;99.90
14008;DHT22;61651;45.508;12.232;2024-01-30T02:10:39;2.70;99.90
14008;DHT22;61651;45.508;12.232;2024-01-30T02:13:43;2.50;99.90
14008;DHT22;61651;45.508;12.232;2024-01-30T02:16:45;2.50;99.90
14008;DHT22;61651;45.508;12.232;2024-01-30T02:19:47;2.50;99.90
14008;DHT22;61651;45.508;12.232;2024-01-30T02:22:52;2.50;99.90
14008;DHT22;61651;45.508;12.232;2024-01-30T02:25:54;2.40;99.90
14008;DHT22;61651;45.508;12.232;2024-01-30T02:28:56;2.50;99.90
14008;DHT22;61651;45.508;12.232;2024-01-30T02:31:58;2.40;99.90
14008;DHT22;61651;45.508;12.232;2024-01-30T02:35:00;2.30;99.90
14008;DHT22;61651;45.508;12.232;2024-01-30T02:38:04;2.40;99.90
14008;DHT22;61651;45.508;12.232;2024-01-30T02:41:06;2.60;99.90
14008;DHT22;61651;45.508;12.232;2024-01-30T02:44:08;2.80;99.90
14008;DHT22;61651;45.508;12.232;2024-01-30T02:47:10;3.10;99.90
14008;DHT22;61651;45.508;12.232;2024-01-30T02:50:12;3.20;99.90
14008;DHT22;61651;45.508;12.232;2024-01-30T02:53:17;3.50;99.90
14008;DHT22;61651;45.508;12.232;2024-01-30T02:56:19;3.80;99.90
14008;DHT22;61651;45.508;12.232;2024-01-30T02:59:21;3.90;99.90
14008;DHT22;61651;45.508;12.232;2024-01-30T03:02:23;3.90;99.90
14008;DHT22;61651;45.508;12.232;2024-01-30T03:05:25;3.80;99.90
14008;DHT22;61651;45.508;12.232;2024-01-30T03:08:28;3.40;99.90
14008;DHT22;61651;45.508;12.232;2024-01-30T03:11:30;3.30;99.90
14008;DHT22;61651;45.508;12.232;2024-01-30T03:14:32;3.30;99.90
14008;DHT22;61651;45.508;12.232;2024-01-30T03:17:34;3.50;99.90
14008;DHT22;61651;45.508;12.232;2024-01-30T03:20:37;3.20;99.90
14008;DHT22;61651;45.508;12.232;2024-01-30T03:23:42;3.00;99.90
14008;DHT22;61651;45.508;12.232;2024-01-30T03:26:45;2.80;99.90
14008;DHT22;61651;45.508;12.232;2024-01-30T03:29:46;2.80;99.90
14008;DHT22;61651;45.508;12.232;2024-01-30T03:32:48;2.90;99.90
14008;DHT22;61651;45.508;12.232;2024-01-30T03:35:50;3.20;99.90
14008;DHT22;61651;45.508;12.232;2024-01-30T03:38:54;3.20;99.90
14008;DHT22;61651;45.508;12.232;2024-01-30T03:41:56;3.10;99.90
14008;DHT22;61651;45.508;12.232;2024-01-30T03:44:58;3.10;99.90
14008;DHT22;61651;45.508;12.232;2024-01-30T03:48:00;3.10;99.90
14008;DHT22;61651;45.508;12.232;2024-01-30T03:51:02;3.00;99.90
14008;DHT22;61651;45.508;12.232;2024-01-30T03:54:06;3.00;99.90
14008;DHT22;61651;45.508;12.232;2024-01-30T03:57:08;3.20;99.90
14008;DHT22;61651;45.508;12.232;2024-01-30T04:00:11;3.20;99.90
14008;DHT22;61651;45.508;12.232;2024-01-30T04:03:14;3.20;99.90
14008;DHT22;61651;45.508;12.232;2024-01-30T04:06:16;3.40;99.90
14008;DHT22;61651;45.508;12.232;2024-01-30T04:09:19;3.20;99.90
14008;DHT22;61651;45.508;12.232;2024-01-30T04:12:21;3.10;99.90
14008;DHT22;61651;45.508;12.232;2024-01-30T04:15:23;2.90;99.90
14008;DHT22;61651;45.508;12.232;2024-01-30T04:18:25;2.70;99.90
14008;DHT22;61651;45.508;12.232;2024-01-30T04:21:27;2.60;99.90
14008;DHT22;61651;45.508;12.232;2024-01-30T04:24:30;2.70;99.90
14008;DHT22;61651;45.508;12.232;2024-01-30T04:27:32;2.70;99.90
14008;DHT22;61651;45.508;12.232;2024-01-30T04:30:34;2.70;99.90
14008;DHT22;61651;45.508;12.232;2024-01-30T04:33:37;2.60;99.90
14008;DHT22;61651;45.508;12.232;2024-01-30T04:36:39;2.60;99.90
14008;DHT22;61651;45.508;12.232;2024-01-30T04:39:42;2.70;99.90
14008;DHT22;61651;45.508;12.232;2024-01-30T04:42:44;2.70;99.90
14008;DHT22;61651;45.508;12.232;2024-01-30T04:45:46;2.60;99.90
14008;DHT22;61651;45.508;12.232;2024-01-30T04:48:48;2.70;99.90
14008;DHT22;61651;45.508;12.232;2024-01-30T04:51:50;2.70;99.90
14008;DHT22;61651;45.508;12.232;2024-01-30T04:54:54;2.30;99.90
14008;DHT22;61651;45.508;12.232;2024-01-30T04:57:56;2.20;99.90
14008;DHT22;61651;45.508;12.232;2024-01-30T05:00:58;2.30;99.90
14008;DHT22;61651;45.508;12.232;2024-01-30T05:04:00;2.30;99.90
14008;DHT22;61651;45.508;12.232;2024-01-30T05:07:04;2.40;99.90
14008;DHT22;61651;45.508;12.232;2024-01-30T05:10:08;2.50;99.90
14008;DHT22;61651;45.508;12.232;2024-01-30T05:13:10;2.50;99.90
14008;DHT22;61651;45.508;12.232;2024-01-30T05:16:14;2.10;99.90
14008;DHT22;61651;45.508;12.232;2024-01-30T05:19:16;1.80;99.90
14008;DHT22;61651;45.508;12.232;2024-01-30T05:22:21;1.80;99.90
14008;DHT22;61651;45.508;12.232;2024-01-30T05:25:24;1.80;99.90
14008;DHT22;61651;45.508;12.232;2024-01-30T05:28:26;2.10;99.90
14008;DHT22;61651;45.508;12.232;2024-01-30T05:31:28;2.20;99.90
14008;DHT22;61651;45.508;12.232;2024-01-30T05:34:30;2.10;99.90
14008;DHT22;61651;45.508;12.232;2024-01-30T05:37:33;2.30;99.90
14008;DHT22;61651;45.508;12.232;2024-01-30T05:40:36;2.40;99.90
14008;DHT22;61651;45.508;12.232;2024-01-30T05:43:38;2.30;99.90
14008;DHT22;61651;45.508;12.232;2024-01-30T05:46:40;2.10;99.90
14008;DHT22;61651;45.508;12.232;2024-01-30T05:49:42;2.20;99.90
14008;DHT22;61651;45.508;12.232;2024-01-30T05:52:44;2.40;99.90
14008;DHT22;61651;45.508;12.232;2024-01-30T05:55:48;2.30;99.90
14008;DHT22;61651;45.508;12.232;2024-01-30T05:58:50;2.10;99.90
14008;DHT22;61651;45.508;12.232;2024-01-30T06:01:52;2.10;99.90
14008;DHT22;61651;45.508;12.232;2024-01-30T06:04:54;2.00;99.90
14008;DHT22;61651;45.508;12.232;2024-01-30T06:07:56;1.90;99.90
14008;DHT22;61651;45.508;12.232;2024-01-30T06:11:00;2.10;99.90
14008;DHT22;61651;45.508;12.232;2024-01-30T06:14:02;2.30;99.90
14008;DHT22;61651;45.508;12.232;2024-01-30T06:17:05;2.40;99.90
14008;DHT22;61651;45.508;12.232;2024-01-30T06:20:07;2.40;99.90
14008;DHT22;61651;45.508;12.232;2024-01-30T06:23:09;2.40;99.90
14008;DHT22;61651;45.508;12.232;2024-01-30T06:26:15;2.70;99.90
14008;DHT22;61651;45.508;12.232;2024-01-30T06:29:17;2.60;99.90
14008;DHT22;61651;45.508;12.232;2024-01-30T06:32:20;2.50;99.90
14008;DHT22;61651;45.508;12.232;2024-01-30T06:35:22;2.20;99.90
14008;DHT22;61651;45.508;12.232;2024-01-30T06:38:24;2.00;99.90
14008;DHT22;61651;45.508;12.232;2024-01-30T06:41:27;2.00;99.90
14008;DHT22;61651;45.508;12.232;2024-01-30T06:44:29;2.00;99.90
14008;DHT22;61651;45.508;12.232;2024-01-30T06:47:31;2.00;99.90
14008;DHT22;61651;45.508;12.232;2024-01-30T06:50:33;2.10;99.90
14008;DHT22;61651;45.508;12.232;2024-01-30T06:53:35;2.10;99.90
14008;DHT22;61651;45.508;12.232;2024-01-30T06:56:39;2.20;99.90
14008;DHT22;61651;45.508;12.232;2024-01-30T06:59:41;2.00;99.90
14008;DHT22;61651;45.508;12.232;2024-01-30T07:02:44;1.80;99.90
14008;DHT22;61651;45.508;12.232;2024-01-30T07:05:47;1.80;99.90
14008;DHT22;61651;45.508;12.232;2024-01-30T07:08:49;2.00;99.90
14008;DHT22;61651;45.508;12.232;2024-01-30T07:11:53;1.90;99.90
14008;DHT22;61651;45.508;12.232;2024-01-30T07:14:56;1.90;99.90
14008;DHT22;61651;45.508;12.232;2024-01-30T07:18:00;2.00;99.90
14008;DHT22;61651;45.508;12.232;2024-01-30T07:21:02;2.10;99.90
14008;DHT22;61651;45.508;12.232;2024-01-30T07:24:05;2.30;99.90
14008;DHT22;61651;45.508;12.232;2024-01-30T07:27:08;2.20;99.90
14008;DHT22;61651;45.508;12.232;2024-01-30T07:30:11;2.00;99.90
14008;DHT22;61651;45.508;12.232;2024-01-30T07:33:13;2.00;99.90
14008;DHT22;61651;45.508;12.232;2024-01-30T07:36:15;1.90;99.90
14008;DHT22;61651;45.508;12.232;2024-01-30T07:39:17;2.00;99.90
14008;DHT22;61651;45.508;12.232;2024-01-30T07:42:20;2.00;99.90
14008;DHT22;61651;45.508;12.232;2024-01-30T07:45:23;1.80;99.90
14008;DHT22;61651;45.508;12.232;2024-01-30T07:48:26;1.70;99.90
14008;DHT22;61651;45.508;12.232;2024-01-30T07:51:28;1.90;99.90
14008;DHT22;61651;45.508;12.232;2024-01-30T07:54:32;1.90;99.90
14008;DHT22;61651;45.508;12.232;2024-01-30T07:57:38;1.90;99.90
14008;DHT22;61651;45.508;12.232;2024-01-30T08:00:40;2.00;99.90
14008;DHT22;61651;45.508;12.232;2024-01-30T08:03:43;2.10;99.90
14008;DHT22;61651;45.508;12.232;2024-01-30T08:06:45;2.00;99.90
14008;DHT22;61651;45.508;12.232;2024-01-30T08:09:47;1.90;99.90
14008;DHT22;61651;45.508;12.232;2024-01-30T08:12:50;2.00;99.90
14008;DHT22;61651;45.508;12.232;2024-01-30T08:15:52;2.10;99.90
14008;DHT22;61651;45.508;12.232;2024-01-30T08:18:54;2.10;99.90
14008;DHT22;61651;45.508;12.232;2024-01-30T08:21:58;2.20;99.90
14008;DHT22;61651;45.508;12.232;2024-01-30T08:25:00;2.20;99.90
14008;DHT22;61651;45.508;12.232;2024-01-30T08:28:04;2.30;99.90
14008;DHT22;61651;45.508;12.232;2024-01-30T08:31:06;2.50;99.90
14008;DHT22;61651;45.508;12.232;2024-01-30T08:34:08;2.70;99.90
14008;DHT22;61651;45.508;12.232;2024-01-30T08:37:10;2.80;99.90
14008;DHT22;61651;45.508;12.232;2024-01-30T08:40:12;3.00;99.90
14008;DHT22;61651;45.508;12.232;2024-01-30T08:43:16;3.10;99.90
14008;DHT22;61651;45.508;12.232;2024-01-30T08:46:18;3.30;99.90
14008;DHT22;61651;45.508;12.232;2024-01-30T08:49:20;3.20;99.90
14008;DHT22;61651;45.508;12.232;2024-01-30T08:52:22;3.20;99.90
14008;DHT22;61651;45.508;12.232;2024-01-30T08:55:24;3.30;99.90
14008;DHT22;61651;45.508;12.232;2024-01-30T08:58:28;3.40;99.90
14008;DHT22;61651;45.508;12.232;2024-01-30T09:01:30;3.60;99.90
14008;DHT22;61651;45.508;12.232;2024-01-30T09:04:32;3.70;99.90
14008;DHT22;61651;45.508;12.232;2024-01-30T09:07:34;3.70;99.90
14008;DHT22;61651;45.508;12.232;2024-01-30T09:10:36;3.60;99.90
14008;DHT22;61651;45.508;12.232;2024-01-30T09:13:40;3.70;99.90
14008;DHT22;61651;45.508;12.232;2024-01-30T09:16:42;3.90;99.90
14008;DHT22;61651;45.508;12.232;2024-01-30T09:19:44;4.10;99.90
14008;DHT22;61651;45.508;12.232;2024-01-30T09:22:46;4.30;99.90
14008;DHT22;61651;45.508;12.232;2024-01-30T09:25:48;4.10;99.90
14008;DHT22;61651;45.508;12.232;2024-01-30T09:28:51;4.20;99.90
14008;DHT22;61651;45.508;12.232;2024-01-30T09:31:54;4.60;99.90
14008;DHT22;61651;45.508;12.232;2024-01-30T09:34:56;4.70;99.90
14008;DHT22;61651;45.508;12.232;2024-01-30T09:37:58;4.90;99.90
14008;DHT22;61651;45.508;12.232;2024-01-30T09:41:03;5.20;99.90
14008;DHT22;61651;45.508;12.232;2024-01-30T09:44:09;5.50;99.90
14008;DHT22;61651;45.508;12.232;2024-01-30T09:47:13;5.60;99.90
14008;DHT22;61651;45.508;12.232;2024-01-30T09:50:17;5.80;99.90
14008;DHT22;61651;45.508;12.232;2024-01-30T09:53:20;6.10;99.90
14008;DHT22;61651;45.508;12.232;2024-01-30T09:56:23;6.10;99.90
14008;DHT22;61651;45.508;12.232;2024-01-30T09:59:27;6.10;99.90
14008;DHT22;61651;45.508;12.232;2024-01-30T10:02:29;6.10;99.90
14008;DHT22;61651;45.508;12.232;2024-01-30T10:05:31;6.30;99.90
14008;DHT22;61651;45.508;12.232;2024-01-30T10:08:35;6.50;99.90
14008;DHT22;61651;45.508;12.232;2024-01-30T10:11:37;6.50;99.90
14008;DHT22;61651;45.508;12.232;2024-01-30T10:14:40;6.50;99.90
14008;DHT22;61651;45.508;12.232;2024-01-30T10:17:44;6.60;99.90
14008;DHT22;61651;45.508;12.232;2024-01-30T10:20:46;6.60;99.90
14008;DHT22;61651;45.508;12.232;2024-01-30T10:23:49;6.70;99.90
14008;DHT22;61651;45.508;12.232;2024-01-30T10:26:52;6.80;99.90
14008;DHT22;61651;45.508;12.232;2024-01-30T10:29:56;7.00;99.90
14008;DHT22;61651;45.508;12.232;2024-01-30T10:32:58;7.40;99.90
14008;DHT22;61651;45.508;12.232;2024-01-30T10:36:01;7.50;99.90
14008;DHT22;61651;45.508;12.232;2024-01-30T10:39:04;7.60;99.90
14008;DHT22;61651;45.508;12.232;2024-01-30T10:42:12;7.80;99.90
14008;DHT22;61651;45.508;12.232;2024-01-30T10:45:15;7.90;99.90
14008;DHT22;61651;45.508;12.232;2024-01-30T10:48:19;8.00;99.90
14008;DHT22;61651;45.508;12.232;2024-01-30T10:51:24;8.10;99.90
14008;DHT22;61651;45.508;12.232;2024-01-30T10:54:27;8.50;99.90
14008;DHT22;61651;45.508;12.232;2024-01-30T10:57:31;8.70;99.90
14008;DHT22;61651;45.508;12.232;2024-01-30T11:00:37;8.40;99.90
14008;DHT22;61651;45.508;12.232;2024-01-30T11:03:39;8.70;99.90
14008;DHT22;61651;45.508;12.232;2024-01-30T11:06:42;9.10;99.90
14008;DHT22;61651;45.508;12.232;2024-01-30T11:09:50;9.10;99.90
14008;DHT22;61651;45.508;12.232;2024-01-30T11:12:52;9.00;99.90
14008;DHT22;61651;45.508;12.232;2024-01-30T11:15:59;9.20;99.90
14008;DHT22;61651;45.508;12.232;2024-01-30T11:19:01;9.30;99.90
14008;DHT22;61651;45.508;12.232;2024-01-30T11:22:06;9.50;99.90
14008;DHT22;61651;45.508;12.232;2024-01-30T11:25:11;9.20;99.90
14008;DHT22;61651;45.508;12.232;2024-01-30T11:28:14;9.30;99.90
14008;DHT22;61651;45.508;12.232;2024-01-30T11:31:20;9.50;99.90
14008;DHT22;61651;45.508;12.232;2024-01-30T11:34:22;9.70;99.90
14008;DHT22;61651;45.508;12.232;2024-01-30T11:37:25;9.50;99.90
14008;DHT22;61651;45.508;12.232;2024-01-30T11:40:29;9.80;99.90
14008;DHT22;61651;45.508;12.232;2024-01-30T11:43:31;10.00;99.90
14008;DHT22;61651;45.508;12.232;2024-01-30T11:46:35;10.10;99.90
14008;DHT22;61651;45.508;12.232;2024-01-30T11:49:37;10.20;99.90
14008;DHT22;61651;45.508;12.232;2024-01-30T11:52:40;10.40;99.90
14008;DHT22;61651;45.508;12.232;2024-01-30T11:55:42;10.50;99.90
14008;DHT22;61651;45.508;12.232;2024-01-30T11:58:44;10.70;99.90
14008;DHT22;61651;45.508;12.232;2024-01-30T12:01:47;10.90;99.90
14008;DHT22;61651;45.508;12.232;2024-01-30T12:04:49;11.10;99.90
14008;DHT22;61651;45.508;12.232;2024-01-30T12:07:52;11.10;99.90
14008;DHT22;61651;45.508;12.232;2024-01-30T12:10:57;11.00;99.90
14008;DHT22;61651;45.508;12.232;2024-01-30T12:14:01;11.20;99.90
14008;DHT22;61651;45.508;12.232;2024-01-30T12:17:05;11.20;99.90
14008;DHT22;61651;45.508;12.232;2024-01-30T12:20:09;11.30;99.60
14008;DHT22;61651;45.508;12.232;2024-01-30T12:23:12;11.20;99.90
14008;DHT22;61651;45.508;12.232;2024-01-30T12:26:14;11.20;99.90
14008;DHT22;61651;45.508;12.232;2024-01-30T12:29:16;11.10;99.90
14008;DHT22;61651;45.508;12.232;2024-01-30T12:32:20;11.30;99.90
14008;DHT22;61651;45.508;12.232;2024-01-30T12:35:25;11.60;99.90
14008;DHT22;61651;45.508;12.232;2024-01-30T12:38:27;11.90;99.60
14008;DHT22;61651;45.508;12.232;2024-01-30T12:41:29;12.00;99.90
14008;DHT22;61651;45.508;12.232;2024-01-30T12:44:33;12.00;98.40
14008;DHT22;61651;45.508;12.232;2024-01-30T12:47:36;11.90;98.40
14008;DHT22;61651;45.508;12.232;2024-01-30T12:50:38;11.90;99.00
14008;DHT22;61651;45.508;12.232;2024-01-30T12:53:40;12.00;98.90
14008;DHT22;61651;45.508;12.232;2024-01-30T12:56:42;12.20;99.20
14008;DHT22;61651;45.508;12.232;2024-01-30T12:59:45;12.20;98.70
14008;DHT22;61651;45.508;12.232;2024-01-30T13:02:49;12.30;98.30
14008;DHT22;61651;45.508;12.232;2024-01-30T13:05:51;12.40;98.10
14008;DHT22;61651;45.508;12.232;2024-01-30T13:08:53;12.70;98.90
14008;DHT22;61651;45.508;12.232;2024-01-30T13:11:55;12.90;98.60
14008;DHT22;61651;45.508;12.232;2024-01-30T13:14:57;12.80;98.50
14008;DHT22;61651;45.508;12.232;2024-01-30T13:18:03;12.80;98.10
14008;DHT22;61651;45.508;12.232;2024-01-30T13:21:05;13.00;97.90
14008;DHT22;61651;45.508;12.232;2024-01-30T13:24:08;13.50;98.00
14008;DHT22;61651;45.508;12.232;2024-01-30T13:27:10;13.10;95.80
14008;DHT22;61651;45.508;12.232;2024-01-30T13:30:12;13.30;96.90
14008;DHT22;61651;45.508;12.232;2024-01-30T13:33:16;13.70;96.90
14008;DHT22;61651;45.508;12.232;2024-01-30T13:36:18;13.90;96.80
14008;DHT22;61651;45.508;12.232;2024-01-30T13:39:20;14.20;97.00
14008;DHT22;61651;45.508;12.232;2024-01-30T13:42:22;14.40;96.40
14008;DHT22;61651;45.508;12.232;2024-01-30T13:45:24;14.50;95.70
14008;DHT22;61651;45.508;12.232;2024-01-30T13:48:28;14.10;95.30
14008;DHT22;61651;45.508;12.232;2024-01-30T13:51:30;14.30;96.20
14008;DHT22;61651;45.508;12.232;2024-01-30T13:54:32;14.10;94.90
14008;DHT22;61651;45.508;12.232;2024-01-30T13:57:35;14.40;95.40
14008;DHT22;61651;45.508;12.232;2024-01-30T14:00:37;14.70;94.10
14008;DHT22;61651;45.508;12.232;2024-01-30T14:03:40;14.90;93.90
14008;DHT22;61651;45.508;12.232;2024-01-30T14:06:42;15.10;93.20
14008;DHT22;61651;45.508;12.232;2024-01-30T14:09:45;15.60;93.10
14008;DHT22;61651;45.508;12.232;2024-01-30T14:12:47;15.90;92.40
14008;DHT22;61651;45.508;12.232;2024-01-30T14:15:49;15.50;91.40
14008;DHT22;61651;45.508;12.232;2024-01-30T14:18:53;15.70;93.00
14008;DHT22;61651;45.508;12.232;2024-01-30T14:21:55;16.40;92.80
14008;DHT22;61651;45.508;12.232;2024-01-30T14:24:57;16.00;91.80
14008;DHT22;61651;45.508;12.232;2024-01-30T14:27:59;15.70;93.10
14008;DHT22;61651;45.508;12.232;2024-01-30T14:31:01;16.30;92.70
14008;DHT22;61651;45.508;12.232;2024-01-30T14:34:04;16.80;91.60
14008;DHT22;61651;45.508;12.232;2024-01-30T14:37:06;16.80;91.20
14008;DHT22;61651;45.508;12.232;2024-01-30T14:40:09;16.40;91.40
14008;DHT22;61651;45.508;12.232;2024-01-30T14:43:11;15.90;91.00
14008;DHT22;61651;45.508;12.232;2024-01-30T14:46:15;16.50;91.70
14008;DHT22;61651;45.508;12.232;2024-01-30T14:49:18;16.80;90.90
14008;DHT22;61651;45.508;12.232;2024-01-30T14:52:21;16.90;90.30
14008;DHT22;61651;45.508;12.232;2024-01-30T14:55:23;16.30;89.30
14008;DHT22;61651;45.508;12.232;2024-01-30T14:58:25;16.40;90.60
14008;DHT22;61651;45.508;12.232;2024-01-30T15:01:27;15.90;91.00
14008;DHT22;61651;45.508;12.232;2024-01-30T15:04:31;15.70;91.10
14008;DHT22;61651;45.508;12.232;2024-01-30T15:07:33;16.30;91.60
14008;DHT22;61651;45.508;12.232;2024-01-30T15:10:37;16.60;92.00
14008;DHT22;61651;45.508;12.232;2024-01-30T15:13:39;16.60;92.60
14008;DHT22;61651;45.508;12.232;2024-01-30T15:16:41;16.50;93.40
14008;DHT22;61651;45.508;12.232;2024-01-30T15:19:44;16.40;93.20
14008;DHT22;61651;45.508;12.232;2024-01-30T15:22:47;16.50;93.70
14008;DHT22;61651;45.508;12.232;2024-01-30T15:25:49;15.50;94.00
14008;DHT22;61651;45.508;12.232;2024-01-30T15:28:51;15.70;94.60
14008;DHT22;61651;45.508;12.232;2024-01-30T15:31:53;16.10;94.80
14008;DHT22;61651;45.508;12.232;2024-01-30T15:34:56;16.20;95.00
14008;DHT22;61651;45.508;12.232;2024-01-30T15:38:01;16.30;95.00
14008;DHT22;61651;45.508;12.232;2024-01-30T15:41:04;16.10;95.00
14008;DHT22;61651;45.508;12.232;2024-01-30T15:44:06;15.90;95.30
14008;DHT22;61651;45.508;12.232;2024-01-30T15:47:08;15.90;95.50
14008;DHT22;61651;45.508;12.232;2024-01-30T15:50:12;15.70;95.60
14008;DHT22;61651;45.508;12.232;2024-01-30T15:53:14;15.50;95.80
14008;DHT22;61651;45.508;12.232;2024-01-30T15:56:17;15.30;96.10
14008;DHT22;61651;45.508;12.232;2024-01-30T15:59:19;15.00;96.30
14008;DHT22;61651;45.508;12.232;2024-01-30T16:02:21;14.80;96.50
14008;DHT22;61651;45.508;12.232;2024-01-30T16:05:24;14.50;96.80
14008;DHT22;61651;45.508;12.232;2024-01-30T16:08:26;14.40;96.90
14008;DHT22;61651;45.508;12.232;2024-01-30T16:11:28;14.20;97.10
14008;DHT22;61651;45.508;12.232;2024-01-30T16:14:32;14.10;97.40
14008;DHT22;61651;45.508;12.232;2024-01-30T16:17:36;13.80;97.90
14008;DHT22;61651;45.508;12.232;2024-01-30T16:20:40;13.60;98.00
14008;DHT22;61651;45.508;12.232;2024-01-30T16:23:42;13.50;98.20
14008;DHT22;61651;45.508;12.232;2024-01-30T16:26:44;13.30;98.70
14008;DHT22;61651;45.508;12.232;2024-01-30T16:29:46;13.20;98.60
14008;DHT22;61651;45.508;12.232;2024-01-30T16:32:51;12.90;99.20
14008;DHT22;61651;45.508;12.232;2024-01-30T16:35:54;12.50;99.90
14008;DHT22;61651;45.508;12.232;2024-01-30T16:38:56;12.30;99.90
14008;DHT22;61651;45.508;12.232;2024-01-30T16:41:59;12.20;99.90
14008;DHT22;61651;45.508;12.232;2024-01-30T16:45:01;12.20;99.90
14008;DHT22;61651;45.508;12.232;2024-01-30T16:48:04;11.80;99.90
14008;DHT22;61651;45.508;12.232;2024-01-30T16:51:07;11.60;99.90
14008;DHT22;61651;45.508;12.232;2024-01-30T16:54:09;11.80;99.90
14008;DHT22;61651;45.508;12.232;2024-01-30T16:57:11;11.90;99.90
14008;DHT22;61651;45.508;12.232;2024-01-30T17:00:14;11.90;99.90
14008;DHT22;61651;45.508;12.232;2024-01-30T17:03:16;11.80;99.90
14008;DHT22;61651;45.508;12.232;2024-01-30T17:06:20;11.80;99.90
14008;DHT22;61651;45.508;12.232;2024-01-30T17:09:22;11.20;99.90
14008;DHT22;61651;45.508;12.232;2024-01-30T17:12:24;10.70;99.90
14008;DHT22;61651;45.508;12.232;2024-01-30T17:15:25;10.60;99.90
14008;DHT22;61651;45.508;12.232;2024-01-30T17:18:28;10.90;99.90
14008;DHT22;61651;45.508;12.232;2024-01-30T17:21:31;11.00;99.90
14008;DHT22;61651;45.508;12.232;2024-01-30T17:24:34;10.50;99.90
14008;DHT22;61651;45.508;12.232;2024-01-30T17:27:36;10.20;99.90
14008;DHT22;61651;45.508;12.232;2024-01-30T17:30:38;10.20;99.90
14008;DHT22;61651;45.508;12.232;2024-01-30T17:33:40;10.20;99.90
14008;DHT22;61651;45.508;12.232;2024-01-30T17:36:44;10.00;99.90
14008;DHT22;61651;45.508;12.232;2024-01-30T17:39:46;9.90;99.90
14008;DHT22;61651;45.508;12.232;2024-01-30T17:42:48;9.60;99.90
14008;DHT22;61651;45.508;12.232;2024-01-30T17:45:50;9.50;99.90
14008;DHT22;61651;45.508;12.232;2024-01-30T17:48:52;9.20;99.90
14008;DHT22;61651;45.508;12.232;2024-01-30T17:51:56;9.10;99.90
14008;DHT22;61651;45.508;12.232;2024-01-30T17:54:58;9.20;99.90
14008;DHT22;61651;45.508;12.232;2024-01-30T17:58:00;9.20;99.90
14008;DHT22;61651;45.508;12.232;2024-01-30T18:01:03;9.10;99.90
14008;DHT22;61651;45.508;12.232;2024-01-30T18:04:05;9.00;99.90
14008;DHT22;61651;45.508;12.232;2024-01-30T18:07:08;8.80;99.90
14008;DHT22;61651;45.508;12.232;2024-01-30T18:10:11;8.90;99.90
14008;DHT22;61651;45.508;12.232;2024-01-30T18:13:13;9.00;99.90
14008;DHT22;61651;45.508;12.232;2024-01-30T18:16:17;8.90;99.90
14008;DHT22;61651;45.508;12.232;2024-01-30T18:19:19;9.10;99.90
14008;DHT22;61651;45.508;12.232;2024-01-30T18:22:23;9.00;99.90
14008;DHT22;61651;45.508;12.232;2024-01-30T18:25:25;9.10;99.90
14008;DHT22;61651;45.508;12.232;2024-01-30T18:28:27;9.30;99.90
14008;DHT22;61651;45.508;12.232;2024-01-30T18:31:29;9.50;99.90
14008;DHT22;61651;45.508;12.232;2024-01-30T18:34:32;9.60;99.90
14008;DHT22;61651;45.508;12.232;2024-01-30T18:37:35;9.70;99.90
14008;DHT22;61651;45.508;12.232;2024-01-30T18:40:37;9.80;99.90
14008;DHT22;61651;45.508;12.232;2024-01-30T18:43:39;9.60;99.90
14008;DHT22;61651;45.508;12.232;2024-01-30T18:46:41;9.40;99.90
14008;DHT22;61651;45.508;12.232;2024-01-30T18:49:43;9.20;99.90
14008;DHT22;61651;45.508;12.232;2024-01-30T18:52:46;9.20;99.90
14008;DHT22;61651;45.508;12.232;2024-01-30T18:55:48;9.20;99.90
14008;DHT22;61651;45.508;12.232;2024-01-30T18:58:50;9.10;99.90
14008;DHT22;61651;45.508;12.232;2024-01-30T19:01:52;8.70;99.90
14008;DHT22;61651;45.508;12.232;2024-01-30T19:04:55;8.70;99.90
14008;DHT22;61651;45.508;12.232;2024-01-30T19:08:00;8.80;99.90